CheckWX is a tool to help pilots better visualize weather data.  It is not intended as a substitute for an official pre-flight weather briefing.

08:31:51 UTC

HELX METAR
Luxor International Airport
Luxor, Egypt
Current

32 mins ago

HELX 230800Z 35003KT 8000 NSC 24/07 Q1018 NOSIG
Observed
Apr-23 @ 08:00 UTC
Wind
  • 350° at 3 KTS
Visibility
7,998 meters
Flight Rules
MVFR
Cloud Levels
  • Clear skies
Temperature
24°C / 75°F
Dewpoint
C / 45°F
Humidity
34%
Altimeter
30.06" Hg
Pressure
1017.92 hPa
Previous

2 hours ago

HELX 230700Z 02003KT 4000 HZ NSC 23/06 Q1018 NOSIG
Observed
Apr-23 @ 07:00 UTC
Wind
  • 020° at 3 KTS
Visibility
4,007 meters
Flight Rules
IFR
Conditions
Haze
Cloud Levels
  • Clear skies
Temperature
23°C / 73°F
Dewpoint
C / 43°F
Humidity
33%
Altimeter
30.06" Hg
Pressure
1017.92 hPa
Previous

3 hours ago

HELX 230600Z 00000KT 8000 NSC 20/06 Q1018 NOSIG
Observed
Apr-23 @ 06:00 UTC
Visibility
7,998 meters
Flight Rules
MVFR
Cloud Levels
  • Clear skies
Temperature
20°C / 68°F
Dewpoint
C / 43°F
Humidity
40%
Altimeter
30.06" Hg
Pressure
1017.92 hPa